Flight Track Log - Related Links

Times and Time Zones

All times are in EDT time to prevent confusion due to time zone crossing. See the SWA864 flight status page for this flight to view local times or setup timezone preferences in your user account.

Time Position Orientation Groundspeed Altitude Reporting Facility
EDT Latitude Longitude Course Direction KTS MPH feet Rate Location/Type
Sat 13:52:11 39.8000 -104.6667 153° Southeast 176 203 7,000  Level Denver TRACON
Sat 13:53:11 39.7500 -104.6333 153° Southeast 258 297 9,100 2,256 Climbing Denver TRACON
Sat 13:54:08 39.6686 -104.6097 167° South 300 345 11,400 2,370 Climbing Denver Center
Sat 13:55:10 39.5592 -104.5786 168° South 375 432 13,800 2,516 Climbing Denver Center
Sat 13:56:12 39.4458 -104.5464 168° South 413 475 16,600 2,516 Climbing Denver Center
Sat 13:57:14 39.3281 -104.5142 168° South 428 493 19,000 2,371 Climbing Denver Center
Sat 13:58:16 39.1942 -104.4769 168° South 457 526 21,500 2,323 Climbing Denver Center
Sat 13:59:18 39.0656 -104.4394 167° South 457 526 23,800 1,839 Climbing Denver Center
Sat 14:00:20 38.9383 -104.4011 167° South 474 545 25,300 2,146 Climbing Denver Center
Sat 14:01:21 38.7836 -104.3600 168° South 501 577 28,200 2,683 Climbing Denver Center
Sat 14:02:23 38.6661 -104.2953 157° South 489 563 30,800 2,323 Climbing Denver Center
Sat 14:03:25 38.5417 -104.1969 148° Southeast 472 543 33,000 1,161 Climbing Denver Center
Sat 14:04:27 38.4353 -104.1125 148° Southeast 470 541 33,200 1,016 Climbing Denver Center
Sat 14:05:29 38.3286 -104.0272 148° Southeast 472 543 35,100 1,742 Climbing Denver Center
Sat 14:06:31 38.2058 -103.9297 148° Southeast 463 533 36,800 1,355 Climbing Denver Center
Sat 14:07:33 38.1003 -103.8475 148° Southeast 462 532 37,900 976 Climbing Denver Center
Sat 14:08:34 38.0125 -103.7811 149° Southeast 459 528 38,800 537 Climbing Denver Center
Sat 14:09:36 37.8742 -103.6736 148° Southeast 455 524 39,000 97 Climbing Denver Center
Sat 14:10:38 37.7517 -103.5775 148° Southeast 458 527 39,000  Level Denver Center
Sat 14:11:40 37.6472 -103.4956 148° Southeast 458 527 39,000  Level Denver Center
Sat 14:12:42 37.5428 -103.4158 149° Southeast 456 525 39,000  Level Denver Center
Sat 14:13:44 37.4219 -103.3217 148° Southeast 455 524 39,000  Level Denver Center
Sat 14:14:29 37.3525 -103.2697 149° Southeast 454 522 39,000  Level Albuquerque Center
Sat 14:15:30 37.2317 -103.1772 149° Southeast 455 524 39,000  Level Albuquerque Center
Sat 14:16:32 37.1258 -103.0997 150° Southeast 457 526 39,000  Level Albuquerque Center
Sat 14:17:34 37.0047 -103.0067 148° Southeast 457 526 39,000  Level Albuquerque Center
Sat 14:18:35 36.8997 -102.9269 149° Southeast 460 529 39,000  Level Albuquerque Center
Sat 14:19:37 36.7950 -102.8475 149° Southeast 458 527 39,000  Level Albuquerque Center
Sat 14:20:39 36.6758 -102.7578 149° Southeast 451 519 39,000 -537 Level Albuquerque Center
Sat 14:21:40 36.5614 -102.6711 149° Southeast 448 516 37,900 -976 Descending Albuquerque Center
Sat 14:22:42 36.4536 -102.5908 149° Southeast 451 519 37,000 -435 Descending Albuquerque Center
Sat 14:23:44 36.3458 -102.5092 149° Southeast 453 521 37,000  Level Albuquerque Center
Sat 14:24:45 36.2367 -102.4300 150° Southeast 456 525 37,000  Level Albuquerque Center
Sat 14:25:47 36.1308 -102.3528 149° Southeast 446 513 37,000  Level Albuquerque Center
Sat 14:26:48 36.0233 -102.2722 149° Southeast 450 518 37,000  Level Albuquerque Center
Sat 14:27:50 35.9167 -102.1953 150° Southeast 446 513 37,000  Level Albuquerque Center
Sat 14:28:52 35.7886 -102.1008 149° Southeast 447 514 37,000  Level Albuquerque Center
Sat 14:29:53 35.6825 -102.0233 149° Southeast 445 512 37,000  Level Albuquerque Center
Sat 14:30:55 35.5772 -101.9467 149° Southeast 442 509 37,000  Level Albuquerque Center
Sat 14:31:56 35.4653 -101.8642 149° Southeast 437 503 37,000  Level Albuquerque Center
Sat 14:32:58 35.3622 -101.7883 149° Southeast 432 497 37,000  Level Albuquerque Center
Sat 14:33:59 35.2578 -101.7139 150° Southeast 430 495 37,000  Level Albuquerque Center
Sat 14:35:01 35.1553 -101.6431 151° Southeast 438 504 37,000  Level Albuquerque Center
Sat 14:36:03 35.0531 -101.5719 150° Southeast 427 491 37,000  Level Albuquerque Center
Sat 14:37:04 34.9383 -101.4942 151° Southeast 440 506 37,000  Level Albuquerque Center
Sat 14:38:06 34.8333 -101.4208 150° Southeast 440 506 37,000  Level Albuquerque Center
Sat 14:39:07 34.7267 -101.3489 151° Southeast 438 504 37,000  Level Albuquerque Center
Sat 14:40:09 34.6214 -101.2764 150° Southeast 437 503 37,000  Level Albuquerque Center
Sat 14:41:10 34.4933 -101.1903 151° Southeast 438 504 37,000  Level Albuquerque Center
Sat 14:42:12 34.3872 -101.1181 151° Southeast 438 504 37,000  Level Albuquerque Center
Sat 14:42:37 34.3425 -101.0881 151° Southeast 439 505 37,000  Level Fort Center
Sat 14:43:37 34.2342 -101.0158 151° Southeast 439 505 37,000  Level Fort Center
Sat 14:44:37 34.1256 -100.9436 151° Southeast 444 511 37,000  Level Fort Center
Sat 14:45:37 34.0294 -100.8769 150° Southeast 444 511 37,000  Level Fort Center
Sat 14:46:37 33.9228 -100.8075 152° Southeast 444 511 37,000  Level Fort Center
Sat 14:47:37 33.8142 -100.7358 151° Southeast 444 511 37,000  Level Fort Center
Sat 14:48:37 33.7053 -100.6644 151° Southeast 444 511 37,000  Level Fort Center
Sat 14:49:37 33.5967 -100.5931 151° Southeast 444 511 37,000  Level Fort Center
Sat 14:50:37 33.4900 -100.5194 150° Southeast 444 511 37,000  Level Fort Center
Sat 14:51:37 33.3789 -100.4483 152° Southeast 444 511 37,000  Level Fort Center
Sat 14:52:37 33.2742 -100.3775 151° Southeast 444 511 37,000  Level Fort Center
Sat 14:53:37 33.1653 -100.3069 152° Southeast 444 511 37,000  Level Fort Center
Sat 14:54:37 33.0583 -100.2392 152° Southeast 444 511 37,000  Level Fort Center
Sat 14:55:37 32.9492 -100.1664 151° Southeast 444 511 37,000  Level Fort Center
Sat 14:56:37 32.8400 -100.0961 152° Southeast 444 511 37,000  Level Fort Center
Sat 14:57:37 32.7289 -100.0236 151° Southeast 444 511 37,000  Level Fort Center
Sat 14:58:37 32.6175 -99.9564 153° Southeast 452 520 37,000  Level Fort Center
Sat 14:59:37 32.4981 -99.8767 151° Southeast 455 524 37,000  Level Fort Center
Sat 15:00:37 32.3928 -99.8172 155° Southeast 442 509 37,000  Level Fort Center
Sat 15:01:37 32.2831 -99.7625 157° South 437 503 37,000  Level Fort Center
Sat 15:02:37 32.1756 -99.7058 156° South 437 503 37,000  Level Fort Center
Sat 15:03:37 32.0681 -99.6492 156° South 431 496 37,000  Level Fort Center
Sat 15:04:37 31.9583 -99.5925 156° South 431 496 37,000  Level Fort Center
Sat 15:05:37 31.8508 -99.5361 156° South 431 496 37,000 -699 Level Fort Center
Sat 15:07:20 31.6772 -99.4467 156° South 426 490 35,100 -1,818 Descending Houston Center
Sat 15:08:22 31.5664 -99.3922 157° South 427 491 32,000 -2,758 Descending Houston Center
Sat 15:09:24 31.4536 -99.3336 156° South 437 503 29,400 -2,195 Descending Houston Center
Sat 15:10:25 31.3433 -99.2775 157° South 431 496 27,500 -1,525 Descending Houston Center
Sat 15:11:26 31.2356 -99.2225 156° South 416 479 26,300 -1,082 Descending Houston Center
Sat 15:12:27 31.1072 -99.1575 157° South 430 495 25,300 -976 Descending Houston Center
Sat 15:13:29 30.9986 -99.1014 156° South 426 490 24,300 -634 Descending Houston Center
Sat 15:14:30 30.8889 -99.0478 157° South 424 488 24,000 -195 Descending Houston Center
Sat 15:15:32 30.7817 -98.9933 156° South 419 482 23,900 -1,220 Descending Houston Center
Sat 15:16:33 30.6739 -98.9403 157° South 418 481 21,500 -2,361 Descending Houston Center
Sat 15:17:34 30.5714 -98.8881 156° South 405 466 19,100 -2,341 Descending Houston Center
Sat 15:18:36 30.4719 -98.8381 157° South 391 450 16,700 -2,439 Descending Houston Center
Sat 15:19:37 30.3719 -98.7892 157° South 388 447 14,100 -2,667 Descending Houston Center
Sat 15:19:57 30.3292 -98.7678 157° South 385 443 13,100 -2,710 Descending Houston Center
Sat 15:20:39 30.2631 -98.7331 156° South 378 435 11,300 -1,748 Descending Houston Center
Sat 15:21:40 30.1700 -98.6892 158° South 360 414 10,100 -639 Descending Houston Center
Sat 15:22:41 30.0753 -98.6481 159° South 339 390 10,000 -522 Descending Houston Center
Sat 15:23:35 30.0094 -98.6197 160° South 294 338 9,100 -991 Descending Houston Center
Sat 15:24:36 29.9350 -98.5878 160° South 285 328 8,100 -541 Descending Houston Center
Sat 15:25:37 29.8522 -98.5542 161° South 289 333 8,000 -50 Descending Houston Center
Sat 15:26:37 29.7750 -98.5369 169° South 282 325 8,000 -446 Level Houston Center
Sat 15:27:38 29.6981 -98.5222 171° South 283 326 7,100 -992 Descending Houston Center
Sat 15:28:38 29.6214 -98.5097 172° South 280 322 6,000 -1,339 Descending Houston Center
Sat 15:29:39 29.5539 -98.5514 208° Southwest 287 330 4,400 -984 Descending Houston Center
Sat 15:30:40 29.4919 -98.5853 205° Southwest 252 290 4,000 -645 Descending Houston Center
Sat 15:31:40 29.4622 -98.5361 125° Southeast 143 165 3,100 -1,140 Descending Houston Center
Sat 15:32:41 29.4886 -98.5039 47° Northeast 130 150 1,700 -971 Descending Houston Center
Sat 15:33:56 29.5253 -98.4694 39° Northeast 133 153 900 -640 Descending Houston Center
Sat 15:35:00 29.5333 -98.4667 28° Northeast  Level FlightAware

Login

Don't have an account? Register now (free) for customized features, flight alerts, and more!